sensor_id;sensor_type;location;lat;lon;timestamp;temperature;humidity
13251;DHT22;6692;50.710;7.180;2022-12-07T00:01:30;5.90;99.90
13251;DHT22;6692;50.710;7.180;2022-12-07T00:03:29;5.90;99.90
13251;DHT22;6692;50.710;7.180;2022-12-07T00:05:30;6.00;99.90
13251;DHT22;6692;50.710;7.180;2022-12-07T00:07:31;6.00;99.90
13251;DHT22;6692;50.710;7.180;2022-12-07T00:09:32;6.00;99.90
13251;DHT22;6692;50.710;7.180;2022-12-07T00:11:33;6.00;99.90
13251;DHT22;6692;50.710;7.180;2022-12-07T00:13:34;5.90;99.90
13251;DHT22;6692;50.710;7.180;2022-12-07T00:15:34;6.00;99.90
13251;DHT22;6692;50.710;7.180;2022-12-07T00:17:35;6.00;99.90
13251;DHT22;6692;50.710;7.180;2022-12-07T00:19:35;6.00;99.90
13251;DHT22;6692;50.710;7.180;2022-12-07T00:21:37;6.00;99.90
13251;DHT22;6692;50.710;7.180;2022-12-07T00:23:37;6.00;99.90
13251;DHT22;6692;50.710;7.180;2022-12-07T00:25:37;6.10;99.90
13251;DHT22;6692;50.710;7.180;2022-12-07T00:27:39;6.00;99.90
13251;DHT22;6692;50.710;7.180;2022-12-07T00:29:39;6.00;99.90
13251;DHT22;6692;50.710;7.180;2022-12-07T00:31:40;6.10;99.90
13251;DHT22;6692;50.710;7.180;2022-12-07T00:33:41;6.10;99.90
13251;DHT22;6692;50.710;7.180;2022-12-07T00:35:41;6.10;99.90
13251;DHT22;6692;50.710;7.180;2022-12-07T00:37:42;6.10;99.90
13251;DHT22;6692;50.710;7.180;2022-12-07T00:39:43;6.10;99.90
13251;DHT22;6692;50.710;7.180;2022-12-07T00:41:43;6.10;99.90
13251;DHT22;6692;50.710;7.180;2022-12-07T00:43:44;6.10;99.90
13251;DHT22;6692;50.710;7.180;2022-12-07T00:45:45;6.20;99.90
13251;DHT22;6692;50.710;7.180;2022-12-07T00:47:45;6.20;99.90
13251;DHT22;6692;50.710;7.180;2022-12-07T00:49:48;6.20;99.90
13251;DHT22;6692;50.710;7.180;2022-12-07T00:51:49;6.20;99.90
13251;DHT22;6692;50.710;7.180;2022-12-07T00:53:49;6.20;99.90
13251;DHT22;6692;50.710;7.180;2022-12-07T00:55:49;6.20;99.90
13251;DHT22;6692;50.710;7.180;2022-12-07T00:57:50;6.20;99.90
13251;DHT22;6692;50.710;7.180;2022-12-07T00:59:51;6.20;99.90
13251;DHT22;6692;50.710;7.180;2022-12-07T01:01:52;6.20;99.90
13251;DHT22;6692;50.710;7.180;2022-12-07T01:03:53;6.20;99.90
13251;DHT22;6692;50.710;7.180;2022-12-07T01:05:55;6.20;99.90
13251;DHT22;6692;50.710;7.180;2022-12-07T01:07:55;6.20;99.90
13251;DHT22;6692;50.710;7.180;2022-12-07T01:09:56;6.20;99.90
13251;DHT22;6692;50.710;7.180;2022-12-07T01:11:57;6.20;99.90
13251;DHT22;6692;50.710;7.180;2022-12-07T01:13:58;6.20;99.90
13251;DHT22;6692;50.710;7.180;2022-12-07T01:15:59;6.20;99.90
13251;DHT22;6692;50.710;7.180;2022-12-07T01:17:59;6.20;99.90
13251;DHT22;6692;50.710;7.180;2022-12-07T01:20:00;6.20;99.90
13251;DHT22;6692;50.710;7.180;2022-12-07T01:22:01;6.10;99.90
13251;DHT22;6692;50.710;7.180;2022-12-07T01:24:02;6.20;99.90
13251;DHT22;6692;50.710;7.180;2022-12-07T01:26:04;6.20;99.90
13251;DHT22;6692;50.710;7.180;2022-12-07T01:28:03;6.20;99.90
13251;DHT22;6692;50.710;7.180;2022-12-07T01:30:05;6.20;99.90
13251;DHT22;6692;50.710;7.180;2022-12-07T01:32:07;6.20;99.90
13251;DHT22;6692;50.710;7.180;2022-12-07T01:34:08;6.20;99.90
13251;DHT22;6692;50.710;7.180;2022-12-07T01:36:19;6.20;99.90
13251;DHT22;6692;50.710;7.180;2022-12-07T01:38:19;6.20;99.90
13251;DHT22;6692;50.710;7.180;2022-12-07T01:40:19;6.10;99.90
13251;DHT22;6692;50.710;7.180;2022-12-07T01:42:20;6.10;99.90
13251;DHT22;6692;50.710;7.180;2022-12-07T01:44:24;6.10;99.90
13251;DHT22;6692;50.710;7.180;2022-12-07T01:46:25;6.00;99.90
13251;DHT22;6692;50.710;7.180;2022-12-07T01:48:27;6.00;99.90
13251;DHT22;6692;50.710;7.180;2022-12-07T01:50:26;6.00;99.90
13251;DHT22;6692;50.710;7.180;2022-12-07T01:52:29;6.00;99.90
13251;DHT22;6692;50.710;7.180;2022-12-07T01:54:28;6.00;99.90
13251;DHT22;6692;50.710;7.180;2022-12-07T01:56:29;6.00;99.90
13251;DHT22;6692;50.710;7.180;2022-12-07T01:58:30;6.00;99.90
13251;DHT22;6692;50.710;7.180;2022-12-07T02:00:30;6.10;99.90
13251;DHT22;6692;50.710;7.180;2022-12-07T02:02:34;6.10;99.90
13251;DHT22;6692;50.710;7.180;2022-12-07T02:04:34;6.00;99.90
13251;DHT22;6692;50.710;7.180;2022-12-07T02:06:34;6.10;99.90
13251;DHT22;6692;50.710;7.180;2022-12-07T02:08:35;6.00;99.90
13251;DHT22;6692;50.710;7.180;2022-12-07T02:10:36;6.00;99.90
13251;DHT22;6692;50.710;7.180;2022-12-07T02:12:37;6.10;99.90
13251;DHT22;6692;50.710;7.180;2022-12-07T02:14:38;6.00;99.90
13251;DHT22;6692;50.710;7.180;2022-12-07T02:16:43;6.10;99.90
13251;DHT22;6692;50.710;7.180;2022-12-07T02:19:24;6.10;99.90
13251;DHT22;6692;50.710;7.180;2022-12-07T02:21:05;6.10;99.90
13251;DHT22;6692;50.710;7.180;2022-12-07T02:27:53;6.00;99.90
13251;DHT22;6692;50.710;7.180;2022-12-07T02:30:00;6.00;99.90
13251;DHT22;6692;50.710;7.180;2022-12-07T02:32:04;6.10;99.90
13251;DHT22;6692;50.710;7.180;2022-12-07T02:34:07;6.00;99.90
13251;DHT22;6692;50.710;7.180;2022-12-07T02:36:07;6.10;99.90
13251;DHT22;6692;50.710;7.180;2022-12-07T02:38:29;6.10;99.90
13251;DHT22;6692;50.710;7.180;2022-12-07T02:40:31;6.10;99.90
13251;DHT22;6692;50.710;7.180;2022-12-07T02:42:32;6.10;99.90
13251;DHT22;6692;50.710;7.180;2022-12-07T02:44:31;6.10;99.90
13251;DHT22;6692;50.710;7.180;2022-12-07T02:46:36;6.20;99.90
13251;DHT22;6692;50.710;7.180;2022-12-07T02:48:35;6.20;99.90
13251;DHT22;6692;50.710;7.180;2022-12-07T02:50:36;6.20;99.90
13251;DHT22;6692;50.710;7.180;2022-12-07T02:52:36;6.20;99.90
13251;DHT22;6692;50.710;7.180;2022-12-07T02:54:37;6.20;99.90
13251;DHT22;6692;50.710;7.180;2022-12-07T02:56:48;6.20;99.90
13251;DHT22;6692;50.710;7.180;2022-12-07T03:01:12;6.20;99.90
13251;DHT22;6692;50.710;7.180;2022-12-07T03:03:10;6.20;99.90
13251;DHT22;6692;50.710;7.180;2022-12-07T03:05:15;6.20;99.90
13251;DHT22;6692;50.710;7.180;2022-12-07T03:07:19;6.20;99.90
13251;DHT22;6692;50.710;7.180;2022-12-07T03:09:20;6.20;99.90
13251;DHT22;6692;50.710;7.180;2022-12-07T03:11:25;6.20;99.90
13251;DHT22;6692;50.710;7.180;2022-12-07T03:13:30;6.20;99.90
13251;DHT22;6692;50.710;7.180;2022-12-07T03:15:34;6.20;99.90
13251;DHT22;6692;50.710;7.180;2022-12-07T03:17:33;6.20;99.90
13251;DHT22;6692;50.710;7.180;2022-12-07T03:19:34;6.20;99.90
13251;DHT22;6692;50.710;7.180;2022-12-07T03:21:40;6.20;99.90
13251;DHT22;6692;50.710;7.180;2022-12-07T03:23:40;6.10;99.90
13251;DHT22;6692;50.710;7.180;2022-12-07T03:25:43;6.10;99.90
13251;DHT22;6692;50.710;7.180;2022-12-07T03:27:53;6.10;99.90
13251;DHT22;6692;50.710;7.180;2022-12-07T03:29:58;6.10;99.90
13251;DHT22;6692;50.710;7.180;2022-12-07T03:31:59;6.10;99.90
13251;DHT22;6692;50.710;7.180;2022-12-07T03:34:05;6.20;99.90
13251;DHT22;6692;50.710;7.180;2022-12-07T03:36:07;6.10;99.90
13251;DHT22;6692;50.710;7.180;2022-12-07T03:38:13;6.10;99.90
13251;DHT22;6692;50.710;7.180;2022-12-07T03:40:14;6.10;99.90
13251;DHT22;6692;50.710;7.180;2022-12-07T03:42:14;6.10;99.90
13251;DHT22;6692;50.710;7.180;2022-12-07T03:44:16;6.10;99.90
13251;DHT22;6692;50.710;7.180;2022-12-07T03:46:37;6.10;99.90
13251;DHT22;6692;50.710;7.180;2022-12-07T03:48:40;6.10;99.90
13251;DHT22;6692;50.710;7.180;2022-12-07T03:50:57;6.20;99.90
13251;DHT22;6692;50.710;7.180;2022-12-07T03:52:56;6.10;99.90
13251;DHT22;6692;50.710;7.180;2022-12-07T03:54:58;6.10;99.90
13251;DHT22;6692;50.710;7.180;2022-12-07T03:56:57;6.10;99.90
13251;DHT22;6692;50.710;7.180;2022-12-07T03:58:57;6.20;99.90
13251;DHT22;6692;50.710;7.180;2022-12-07T04:00:59;6.10;99.90
13251;DHT22;6692;50.710;7.180;2022-12-07T04:03:00;6.10;99.90
13251;DHT22;6692;50.710;7.180;2022-12-07T04:05:02;6.20;99.90
13251;DHT22;6692;50.710;7.180;2022-12-07T04:07:02;6.20;99.90
13251;DHT22;6692;50.710;7.180;2022-12-07T04:09:03;6.20;99.90
13251;DHT22;6692;50.710;7.180;2022-12-07T04:11:04;6.10;99.90
13251;DHT22;6692;50.710;7.180;2022-12-07T04:13:05;6.10;99.90
13251;DHT22;6692;50.710;7.180;2022-12-07T04:15:07;6.20;99.90
13251;DHT22;6692;50.710;7.180;2022-12-07T04:17:08;6.20;99.90
13251;DHT22;6692;50.710;7.180;2022-12-07T04:19:08;6.20;99.90
13251;DHT22;6692;50.710;7.180;2022-12-07T04:21:09;6.20;99.90
13251;DHT22;6692;50.710;7.180;2022-12-07T04:23:10;6.20;99.90
13251;DHT22;6692;50.710;7.180;2022-12-07T04:25:10;6.20;99.90
13251;DHT22;6692;50.710;7.180;2022-12-07T04:27:11;6.20;99.90
13251;DHT22;6692;50.710;7.180;2022-12-07T04:29:12;6.20;99.90
13251;DHT22;6692;50.710;7.180;2022-12-07T04:31:13;6.20;99.90
13251;DHT22;6692;50.710;7.180;2022-12-07T04:33:13;6.10;99.90
13251;DHT22;6692;50.710;7.180;2022-12-07T04:35:15;6.10;99.90
13251;DHT22;6692;50.710;7.180;2022-12-07T04:37:15;6.10;99.90
13251;DHT22;6692;50.710;7.180;2022-12-07T04:39:20;6.20;99.90
13251;DHT22;6692;50.710;7.180;2022-12-07T04:41:20;6.20;99.90
13251;DHT22;6692;50.710;7.180;2022-12-07T04:43:20;6.10;99.90
13251;DHT22;6692;50.710;7.180;2022-12-07T04:45:21;6.20;99.90
13251;DHT22;6692;50.710;7.180;2022-12-07T04:47:22;6.20;99.90
13251;DHT22;6692;50.710;7.180;2022-12-07T04:49:23;6.10;99.90
13251;DHT22;6692;50.710;7.180;2022-12-07T04:51:26;6.10;99.90
13251;DHT22;6692;50.710;7.180;2022-12-07T04:53:26;6.10;99.90
13251;DHT22;6692;50.710;7.180;2022-12-07T04:55:26;6.20;99.90
13251;DHT22;6692;50.710;7.180;2022-12-07T04:57:27;6.20;99.90
13251;DHT22;6692;50.710;7.180;2022-12-07T04:59:28;6.20;99.90
13251;DHT22;6692;50.710;7.180;2022-12-07T05:01:28;6.20;99.90
13251;DHT22;6692;50.710;7.180;2022-12-07T05:03:29;6.10;99.90
13251;DHT22;6692;50.710;7.180;2022-12-07T05:05:30;6.10;99.90
13251;DHT22;6692;50.710;7.180;2022-12-07T05:07:30;6.10;99.90
13251;DHT22;6692;50.710;7.180;2022-12-07T05:09:31;6.10;99.90
13251;DHT22;6692;50.710;7.180;2022-12-07T05:11:31;6.10;99.90
13251;DHT22;6692;50.710;7.180;2022-12-07T05:13:38;6.10;99.90
13251;DHT22;6692;50.710;7.180;2022-12-07T05:15:40;6.10;99.90
13251;DHT22;6692;50.710;7.180;2022-12-07T05:17:42;6.10;99.90
13251;DHT22;6692;50.710;7.180;2022-12-07T05:19:42;6.10;99.90
13251;DHT22;6692;50.710;7.180;2022-12-07T05:21:43;6.10;99.90
13251;DHT22;6692;50.710;7.180;2022-12-07T05:23:44;6.20;99.90
13251;DHT22;6692;50.710;7.180;2022-12-07T05:25:44;6.10;99.90
13251;DHT22;6692;50.710;7.180;2022-12-07T05:27:45;6.10;99.90
13251;DHT22;6692;50.710;7.180;2022-12-07T05:29:46;6.10;99.90
13251;DHT22;6692;50.710;7.180;2022-12-07T05:31:46;6.10;99.90
13251;DHT22;6692;50.710;7.180;2022-12-07T05:33:47;6.10;99.90
13251;DHT22;6692;50.710;7.180;2022-12-07T05:35:48;6.20;99.90
13251;DHT22;6692;50.710;7.180;2022-12-07T05:37:48;6.20;99.90
13251;DHT22;6692;50.710;7.180;2022-12-07T05:39:49;6.10;99.90
13251;DHT22;6692;50.710;7.180;2022-12-07T05:41:49;6.20;99.90
13251;DHT22;6692;50.710;7.180;2022-12-07T05:43:57;6.10;99.90
13251;DHT22;6692;50.710;7.180;2022-12-07T05:45:58;6.10;99.90
13251;DHT22;6692;50.710;7.180;2022-12-07T05:47:58;6.20;99.90
13251;DHT22;6692;50.710;7.180;2022-12-07T05:50:01;6.20;99.90
13251;DHT22;6692;50.710;7.180;2022-12-07T05:52:02;6.10;99.90
13251;DHT22;6692;50.710;7.180;2022-12-07T05:54:03;6.10;99.90
13251;DHT22;6692;50.710;7.180;2022-12-07T05:56:04;6.20;99.90
13251;DHT22;6692;50.710;7.180;2022-12-07T05:58:06;6.20;99.90
13251;DHT22;6692;50.710;7.180;2022-12-07T06:00:14;6.10;99.90
13251;DHT22;6692;50.710;7.180;2022-12-07T06:02:15;6.10;99.90
13251;DHT22;6692;50.710;7.180;2022-12-07T06:04:16;6.10;99.90
13251;DHT22;6692;50.710;7.180;2022-12-07T06:06:16;6.10;99.90
13251;DHT22;6692;50.710;7.180;2022-12-07T06:08:17;6.10;99.90
13251;DHT22;6692;50.710;7.180;2022-12-07T06:10:17;6.10;99.90
13251;DHT22;6692;50.710;7.180;2022-12-07T06:12:18;6.10;99.90
13251;DHT22;6692;50.710;7.180;2022-12-07T06:14:25;6.10;99.90
13251;DHT22;6692;50.710;7.180;2022-12-07T06:16:26;6.20;99.90
13251;DHT22;6692;50.710;7.180;2022-12-07T06:18:27;6.20;99.90
13251;DHT22;6692;50.710;7.180;2022-12-07T06:20:28;6.20;99.90
13251;DHT22;6692;50.710;7.180;2022-12-07T06:22:28;6.20;99.90
13251;DHT22;6692;50.710;7.180;2022-12-07T06:24:30;6.10;99.90
13251;DHT22;6692;50.710;7.180;2022-12-07T06:26:30;6.10;99.90
13251;DHT22;6692;50.710;7.180;2022-12-07T06:28:31;6.10;99.90
13251;DHT22;6692;50.710;7.180;2022-12-07T06:30:32;6.10;99.90
13251;DHT22;6692;50.710;7.180;2022-12-07T06:32:33;6.10;99.90
13251;DHT22;6692;50.710;7.180;2022-12-07T06:34:33;6.10;99.90
13251;DHT22;6692;50.710;7.180;2022-12-07T06:36:34;6.10;99.90
13251;DHT22;6692;50.710;7.180;2022-12-07T06:38:35;6.10;99.90
13251;DHT22;6692;50.710;7.180;2022-12-07T06:40:36;6.10;99.90
13251;DHT22;6692;50.710;7.180;2022-12-07T06:42:37;6.10;99.90
13251;DHT22;6692;50.710;7.180;2022-12-07T06:44:37;6.10;99.90
13251;DHT22;6692;50.710;7.180;2022-12-07T06:46:38;6.00;99.90
13251;DHT22;6692;50.710;7.180;2022-12-07T06:48:39;6.00;99.90
13251;DHT22;6692;50.710;7.180;2022-12-07T06:50:40;6.00;99.90
13251;DHT22;6692;50.710;7.180;2022-12-07T06:52:41;6.00;99.90
13251;DHT22;6692;50.710;7.180;2022-12-07T06:54:41;6.00;99.90
13251;DHT22;6692;50.710;7.180;2022-12-07T06:56:42;6.00;99.90
13251;DHT22;6692;50.710;7.180;2022-12-07T06:58:43;6.00;99.90
13251;DHT22;6692;50.710;7.180;2022-12-07T07:00:43;6.00;99.90
13251;DHT22;6692;50.710;7.180;2022-12-07T07:02:44;6.00;99.90
13251;DHT22;6692;50.710;7.180;2022-12-07T07:04:45;6.00;99.90
13251;DHT22;6692;50.710;7.180;2022-12-07T07:06:45;6.00;99.90
13251;DHT22;6692;50.710;7.180;2022-12-07T07:08:47;5.90;99.90
13251;DHT22;6692;50.710;7.180;2022-12-07T07:10:47;5.90;99.90
13251;DHT22;6692;50.710;7.180;2022-12-07T07:12:48;6.00;99.90
13251;DHT22;6692;50.710;7.180;2022-12-07T07:14:49;6.00;99.90
13251;DHT22;6692;50.710;7.180;2022-12-07T07:16:49;5.90;99.90
13251;DHT22;6692;50.710;7.180;2022-12-07T07:18:50;5.90;99.90
13251;DHT22;6692;50.710;7.180;2022-12-07T07:20:51;5.90;99.90
13251;DHT22;6692;50.710;7.180;2022-12-07T07:22:53;5.90;99.90
13251;DHT22;6692;50.710;7.180;2022-12-07T07:24:52;5.90;99.90
13251;DHT22;6692;50.710;7.180;2022-12-07T07:26:52;5.80;99.90
13251;DHT22;6692;50.710;7.180;2022-12-07T07:28:53;5.90;99.90
13251;DHT22;6692;50.710;7.180;2022-12-07T07:30:54;5.90;99.90
13251;DHT22;6692;50.710;7.180;2022-12-07T07:32:56;5.90;99.90
13251;DHT22;6692;50.710;7.180;2022-12-07T07:34:56;5.90;99.90
13251;DHT22;6692;50.710;7.180;2022-12-07T07:36:57;5.90;99.90
13251;DHT22;6692;50.710;7.180;2022-12-07T07:38:57;5.90;99.90
13251;DHT22;6692;50.710;7.180;2022-12-07T07:40:59;5.90;99.90
13251;DHT22;6692;50.710;7.180;2022-12-07T07:42:59;5.90;99.90
13251;DHT22;6692;50.710;7.180;2022-12-07T07:45:00;5.90;99.90
13251;DHT22;6692;50.710;7.180;2022-12-07T07:47:01;6.00;99.90
13251;DHT22;6692;50.710;7.180;2022-12-07T07:49:01;6.00;99.90
13251;DHT22;6692;50.710;7.180;2022-12-07T07:51:05;6.10;99.90
13251;DHT22;6692;50.710;7.180;2022-12-07T07:53:05;6.10;99.90
13251;DHT22;6692;50.710;7.180;2022-12-07T07:55:06;6.10;99.90
13251;DHT22;6692;50.710;7.180;2022-12-07T07:57:07;6.10;99.90
13251;DHT22;6692;50.710;7.180;2022-12-07T07:59:07;6.10;99.90
13251;DHT22;6692;50.710;7.180;2022-12-07T08:01:08;6.20;99.90
13251;DHT22;6692;50.710;7.180;2022-12-07T08:03:09;6.20;99.90
13251;DHT22;6692;50.710;7.180;2022-12-07T08:05:11;6.20;99.90
13251;DHT22;6692;50.710;7.180;2022-12-07T08:07:11;6.20;99.90
13251;DHT22;6692;50.710;7.180;2022-12-07T08:09:12;6.20;99.90
13251;DHT22;6692;50.710;7.180;2022-12-07T08:11:13;6.20;99.90
13251;DHT22;6692;50.710;7.180;2022-12-07T08:13:15;6.20;99.90
13251;DHT22;6692;50.710;7.180;2022-12-07T08:15:15;6.20;99.90
13251;DHT22;6692;50.710;7.180;2022-12-07T08:17:16;6.30;99.90
13251;DHT22;6692;50.710;7.180;2022-12-07T08:19:17;6.20;99.90
13251;DHT22;6692;50.710;7.180;2022-12-07T08:21:19;6.30;99.90
13251;DHT22;6692;50.710;7.180;2022-12-07T08:23:19;6.30;99.90
13251;DHT22;6692;50.710;7.180;2022-12-07T08:25:20;6.30;99.90
13251;DHT22;6692;50.710;7.180;2022-12-07T08:27:21;6.30;99.90
13251;DHT22;6692;50.710;7.180;2022-12-07T08:29:21;6.30;99.90
13251;DHT22;6692;50.710;7.180;2022-12-07T08:31:23;6.30;99.90
13251;DHT22;6692;50.710;7.180;2022-12-07T08:33:23;6.30;99.90
13251;DHT22;6692;50.710;7.180;2022-12-07T08:35:24;6.30;99.90
13251;DHT22;6692;50.710;7.180;2022-12-07T08:37:25;6.30;99.90
13251;DHT22;6692;50.710;7.180;2022-12-07T08:39:25;6.30;99.90
13251;DHT22;6692;50.710;7.180;2022-12-07T08:41:26;6.30;99.90
13251;DHT22;6692;50.710;7.180;2022-12-07T08:43:27;6.30;99.90
13251;DHT22;6692;50.710;7.180;2022-12-07T08:45:28;6.40;99.90
13251;DHT22;6692;50.710;7.180;2022-12-07T08:47:28;6.40;99.90
13251;DHT22;6692;50.710;7.180;2022-12-07T08:49:35;6.40;99.90
13251;DHT22;6692;50.710;7.180;2022-12-07T08:51:33;6.50;99.90
13251;DHT22;6692;50.710;7.180;2022-12-07T08:53:34;6.50;99.90
13251;DHT22;6692;50.710;7.180;2022-12-07T08:55:35;6.60;99.90
13251;DHT22;6692;50.710;7.180;2022-12-07T08:57:35;6.70;99.90
13251;DHT22;6692;50.710;7.180;2022-12-07T08:59:38;6.70;99.90
13251;DHT22;6692;50.710;7.180;2022-12-07T09:01:38;6.70;99.90
13251;DHT22;6692;50.710;7.180;2022-12-07T09:03:39;6.80;99.90
13251;DHT22;6692;50.710;7.180;2022-12-07T09:05:40;6.80;99.90
13251;DHT22;6692;50.710;7.180;2022-12-07T09:07:40;6.80;99.90
13251;DHT22;6692;50.710;7.180;2022-12-07T09:09:41;6.80;99.90
13251;DHT22;6692;50.710;7.180;2022-12-07T09:11:42;6.70;99.90
13251;DHT22;6692;50.710;7.180;2022-12-07T09:13:42;6.70;99.90
13251;DHT22;6692;50.710;7.180;2022-12-07T09:15:43;6.70;99.90
13251;DHT22;6692;50.710;7.180;2022-12-07T09:17:43;6.70;99.90
13251;DHT22;6692;50.710;7.180;2022-12-07T09:19:44;6.70;99.90
13251;DHT22;6692;50.710;7.180;2022-12-07T09:21:46;6.80;99.90
13251;DHT22;6692;50.710;7.180;2022-12-07T09:23:46;6.70;99.90
13251;DHT22;6692;50.710;7.180;2022-12-07T09:25:47;6.80;99.90
13251;DHT22;6692;50.710;7.180;2022-12-07T09:27:48;6.80;99.90
13251;DHT22;6692;50.710;7.180;2022-12-07T09:29:48;6.90;99.90
13251;DHT22;6692;50.710;7.180;2022-12-07T09:31:49;7.00;99.90
13251;DHT22;6692;50.710;7.180;2022-12-07T09:33:56;7.10;99.90
13251;DHT22;6692;50.710;7.180;2022-12-07T09:35:56;7.10;99.90
13251;DHT22;6692;50.710;7.180;2022-12-07T09:37:57;7.10;99.90
13251;DHT22;6692;50.710;7.180;2022-12-07T09:39:57;7.10;99.90
13251;DHT22;6692;50.710;7.180;2022-12-07T09:41:58;7.20;99.90
13251;DHT22;6692;50.710;7.180;2022-12-07T09:44:03;7.20;99.90
13251;DHT22;6692;50.710;7.180;2022-12-07T09:46:01;7.20;99.90
13251;DHT22;6692;50.710;7.180;2022-12-07T09:48:02;7.20;99.90
13251;DHT22;6692;50.710;7.180;2022-12-07T09:50:04;7.20;99.90
13251;DHT22;6692;50.710;7.180;2022-12-07T09:52:19;7.20;99.90
13251;DHT22;6692;50.710;7.180;2022-12-07T09:54:19;7.20;99.90
13251;DHT22;6692;50.710;7.180;2022-12-07T09:56:20;7.30;99.90
13251;DHT22;6692;50.710;7.180;2022-12-07T09:58:23;7.20;99.90
13251;DHT22;6692;50.710;7.180;2022-12-07T10:00:23;7.30;99.90
13251;DHT22;6692;50.710;7.180;2022-12-07T10:04:32;7.50;99.90
13251;DHT22;6692;50.710;7.180;2022-12-07T10:06:32;7.40;99.90
13251;DHT22;6692;50.710;7.180;2022-12-07T10:08:33;7.50;99.90
13251;DHT22;6692;50.710;7.180;2022-12-07T10:10:34;7.50;99.90
13251;DHT22;6692;50.710;7.180;2022-12-07T10:14:53;7.50;99.90
13251;DHT22;6692;50.710;7.180;2022-12-07T10:16:49;7.40;99.90
13251;DHT22;6692;50.710;7.180;2022-12-07T10:18:49;7.40;99.90
13251;DHT22;6692;50.710;7.180;2022-12-07T10:20:58;7.40;99.90
13251;DHT22;6692;50.710;7.180;2022-12-07T10:23:05;7.50;99.90
13251;DHT22;6692;50.710;7.180;2022-12-07T10:25:08;7.50;99.90
13251;DHT22;6692;50.710;7.180;2022-12-07T10:27:29;7.50;99.90
13251;DHT22;6692;50.710;7.180;2022-12-07T10:29:31;7.50;99.90
13251;DHT22;6692;50.710;7.180;2022-12-07T10:31:30;7.60;99.90
13251;DHT22;6692;50.710;7.180;2022-12-07T10:33:33;7.60;99.90
13251;DHT22;6692;50.710;7.180;2022-12-07T10:35:33;7.50;99.90
13251;DHT22;6692;50.710;7.180;2022-12-07T10:37:36;7.50;99.90
13251;DHT22;6692;50.710;7.180;2022-12-07T10:39:45;7.50;99.90
13251;DHT22;6692;50.710;7.180;2022-12-07T10:41:53;7.60;99.90
13251;DHT22;6692;50.710;7.180;2022-12-07T10:43:54;7.60;99.90
13251;DHT22;6692;50.710;7.180;2022-12-07T10:46:13;7.60;99.90
13251;DHT22;6692;50.710;7.180;2022-12-07T10:48:17;7.60;99.90
13251;DHT22;6692;50.710;7.180;2022-12-07T10:50:38;7.70;99.90
13251;DHT22;6692;50.710;7.180;2022-12-07T10:52:56;7.80;99.90
13251;DHT22;6692;50.710;7.180;2022-12-07T10:55:16;7.70;99.90
13251;DHT22;6692;50.710;7.180;2022-12-07T10:57:25;7.40;99.90
13251;DHT22;6692;50.710;7.180;2022-12-07T11:00:16;7.20;99.90
13251;DHT22;6692;50.710;7.180;2022-12-07T11:02:09;6.90;99.90
13251;DHT22;6692;50.710;7.180;2022-12-07T11:06:24;6.80;99.90
13251;DHT22;6692;50.710;7.180;2022-12-07T11:08:35;6.80;99.90
13251;DHT22;6692;50.710;7.180;2022-12-07T11:10:36;6.90;99.90
13251;DHT22;6692;50.710;7.180;2022-12-07T11:17:18;7.20;99.90
13251;DHT22;6692;50.710;7.180;2022-12-07T11:21:56;7.30;99.90
13251;DHT22;6692;50.710;7.180;2022-12-07T11:26:25;7.30;99.90
13251;DHT22;6692;50.710;7.180;2022-12-07T11:30:52;7.20;99.90
13251;DHT22;6692;50.710;7.180;2022-12-07T11:33:00;7.20;99.90
13251;DHT22;6692;50.710;7.180;2022-12-07T11:37:20;7.00;99.90
13251;DHT22;6692;50.710;7.180;2022-12-07T11:39:26;7.00;99.90
13251;DHT22;6692;50.710;7.180;2022-12-07T11:41:27;7.00;99.90
13251;DHT22;6692;50.710;7.180;2022-12-07T11:43:31;7.00;99.90
13251;DHT22;6692;50.710;7.180;2022-12-07T11:45:33;7.10;99.90
13251;DHT22;6692;50.710;7.180;2022-12-07T11:49:54;7.20;99.90
13251;DHT22;6692;50.710;7.180;2022-12-07T11:51:52;7.30;99.90
13251;DHT22;6692;50.710;7.180;2022-12-07T11:53:56;7.50;99.90
13251;DHT22;6692;50.710;7.180;2022-12-07T11:56:19;7.60;99.90
13251;DHT22;6692;50.710;7.180;2022-12-07T12:00:38;7.60;99.90
13251;DHT22;6692;50.710;7.180;2022-12-07T12:02:43;7.70;99.90
13251;DHT22;6692;50.710;7.180;2022-12-07T12:05:21;7.70;99.90
13251;DHT22;6692;50.710;7.180;2022-12-07T12:07:03;7.70;99.90
13251;DHT22;6692;50.710;7.180;2022-12-07T12:09:12;7.70;99.90
13251;DHT22;6692;50.710;7.180;2022-12-07T12:11:40;7.60;99.90
13251;DHT22;6692;50.710;7.180;2022-12-07T12:13:49;7.50;99.90
13251;DHT22;6692;50.710;7.180;2022-12-07T12:15:59;7.40;99.90
13251;DHT22;6692;50.710;7.180;2022-12-07T12:18:01;7.30;99.90
13251;DHT22;6692;50.710;7.180;2022-12-07T12:20:03;7.30;99.90
13251;DHT22;6692;50.710;7.180;2022-12-07T12:24:13;7.20;99.90
13251;DHT22;6692;50.710;7.180;2022-12-07T12:26:17;7.20;99.90
13251;DHT22;6692;50.710;7.180;2022-12-07T12:30:39;7.30;99.90
13251;DHT22;6692;50.710;7.180;2022-12-07T12:32:39;7.40;99.90
13251;DHT22;6692;50.710;7.180;2022-12-07T12:34:40;7.50;99.90
13251;DHT22;6692;50.710;7.180;2022-12-07T12:36:46;7.60;99.90
13251;DHT22;6692;50.710;7.180;2022-12-07T12:39:15;7.70;99.90
13251;DHT22;6692;50.710;7.180;2022-12-07T12:43:39;8.00;99.90
13251;DHT22;6692;50.710;7.180;2022-12-07T12:45:39;7.90;99.90
13251;DHT22;6692;50.710;7.180;2022-12-07T12:48:00;8.10;99.90
13251;DHT22;6692;50.710;7.180;2022-12-07T12:50:15;8.10;99.90
13251;DHT22;6692;50.710;7.180;2022-12-07T12:54:58;8.20;99.90
13251;DHT22;6692;50.710;7.180;2022-12-07T12:57:19;8.30;99.90
13251;DHT22;6692;50.710;7.180;2022-12-07T12:59:23;8.30;99.90
13251;DHT22;6692;50.710;7.180;2022-12-07T13:01:42;8.10;99.90
13251;DHT22;6692;50.710;7.180;2022-12-07T13:03:51;8.00;99.90
13251;DHT22;6692;50.710;7.180;2022-12-07T13:05:46;8.00;99.90
13251;DHT22;6692;50.710;7.180;2022-12-07T13:07:53;8.00;99.90
13251;DHT22;6692;50.710;7.180;2022-12-07T13:09:52;8.00;99.90
13251;DHT22;6692;50.710;7.180;2022-12-07T13:11:56;8.00;99.90
13251;DHT22;6692;50.710;7.180;2022-12-07T13:18:39;8.00;99.90
13251;DHT22;6692;50.710;7.180;2022-12-07T13:20:45;7.90;99.90
13251;DHT22;6692;50.710;7.180;2022-12-07T13:22:46;7.90;99.90
13251;DHT22;6692;50.710;7.180;2022-12-07T13:24:45;7.80;99.90
13251;DHT22;6692;50.710;7.180;2022-12-07T13:26:46;7.80;99.90
13251;DHT22;6692;50.710;7.180;2022-12-07T13:28:48;7.80;99.90
13251;DHT22;6692;50.710;7.180;2022-12-07T13:30:54;7.70;99.90
13251;DHT22;6692;50.710;7.180;2022-12-07T13:32:52;7.70;99.90
13251;DHT22;6692;50.710;7.180;2022-12-07T13:34:53;7.70;99.90
13251;DHT22;6692;50.710;7.180;2022-12-07T13:36:54;7.60;99.90
13251;DHT22;6692;50.710;7.180;2022-12-07T13:38:57;7.60;99.90
13251;DHT22;6692;50.710;7.180;2022-12-07T13:41:03;7.60;99.90
13251;DHT22;6692;50.710;7.180;2022-12-07T13:43:05;7.60;99.90
13251;DHT22;6692;50.710;7.180;2022-12-07T13:45:20;7.50;99.90
13251;DHT22;6692;50.710;7.180;2022-12-07T13:47:24;7.50;99.90
13251;DHT22;6692;50.710;7.180;2022-12-07T13:49:23;7.30;99.90
13251;DHT22;6692;50.710;7.180;2022-12-07T13:51:25;7.20;99.90
13251;DHT22;6692;50.710;7.180;2022-12-07T13:53:25;6.90;99.90
13251;DHT22;6692;50.710;7.180;2022-12-07T13:55:28;6.90;99.90
13251;DHT22;6692;50.710;7.180;2022-12-07T13:57:28;6.80;99.90
13251;DHT22;6692;50.710;7.180;2022-12-07T13:59:29;6.80;99.90
13251;DHT22;6692;50.710;7.180;2022-12-07T14:01:30;6.80;99.90
13251;DHT22;6692;50.710;7.180;2022-12-07T14:03:32;6.80;99.90
13251;DHT22;6692;50.710;7.180;2022-12-07T14:05:32;6.80;99.90
13251;DHT22;6692;50.710;7.180;2022-12-07T14:07:33;6.80;99.90